sensor_id;sensor_type;location;lat;lon;timestamp;temperature;humidity
13652;DHT22;6899;51.546;6.912;2023-07-13T00:00:25;14.60;99.90
13652;DHT22;6899;51.546;6.912;2023-07-13T00:02:52;14.70;99.90
13652;DHT22;6899;51.546;6.912;2023-07-13T00:05:20;14.70;99.90
13652;DHT22;6899;51.546;6.912;2023-07-13T00:07:46;14.70;99.90
13652;DHT22;6899;51.546;6.912;2023-07-13T00:10:13;14.70;99.90
13652;DHT22;6899;51.546;6.912;2023-07-13T00:12:42;14.70;99.90
13652;DHT22;6899;51.546;6.912;2023-07-13T00:15:13;14.70;99.90
13652;DHT22;6899;51.546;6.912;2023-07-13T00:17:41;14.70;99.90
13652;DHT22;6899;51.546;6.912;2023-07-13T00:20:10;14.60;99.90
13652;DHT22;6899;51.546;6.912;2023-07-13T00:22:37;14.50;99.90
13652;DHT22;6899;51.546;6.912;2023-07-13T00:25:05;14.60;99.90
13652;DHT22;6899;51.546;6.912;2023-07-13T00:27:32;14.50;99.90
13652;DHT22;6899;51.546;6.912;2023-07-13T00:30:00;14.60;99.90
13652;DHT22;6899;51.546;6.912;2023-07-13T00:32:28;14.50;99.90
13652;DHT22;6899;51.546;6.912;2023-07-13T00:34:56;14.40;99.90
13652;DHT22;6899;51.546;6.912;2023-07-13T00:37:24;14.40;99.90
13652;DHT22;6899;51.546;6.912;2023-07-13T00:39:50;14.30;99.90
13652;DHT22;6899;51.546;6.912;2023-07-13T00:42:17;14.20;99.90
13652;DHT22;6899;51.546;6.912;2023-07-13T00:45:04;14.30;99.90
13652;DHT22;6899;51.546;6.912;2023-07-13T00:47:31;14.30;99.90
13652;DHT22;6899;51.546;6.912;2023-07-13T00:49:58;14.20;99.90
13652;DHT22;6899;51.546;6.912;2023-07-13T00:52:25;14.10;99.90
13652;DHT22;6899;51.546;6.912;2023-07-13T00:54:54;14.10;99.90
13652;DHT22;6899;51.546;6.912;2023-07-13T00:57:22;14.00;99.90
13652;DHT22;6899;51.546;6.912;2023-07-13T00:59:52;13.80;99.90
13652;DHT22;6899;51.546;6.912;2023-07-13T01:02:22;13.80;99.90
13652;DHT22;6899;51.546;6.912;2023-07-13T01:04:49;14.00;99.90
13652;DHT22;6899;51.546;6.912;2023-07-13T01:07:16;13.90;99.90
13652;DHT22;6899;51.546;6.912;2023-07-13T01:09:44;13.90;99.90
13652;DHT22;6899;51.546;6.912;2023-07-13T01:12:12;13.90;99.90
13652;DHT22;6899;51.546;6.912;2023-07-13T01:14:39;14.00;99.90
13652;DHT22;6899;51.546;6.912;2023-07-13T01:17:09;13.80;99.90
13652;DHT22;6899;51.546;6.912;2023-07-13T01:19:39;13.80;99.90
13652;DHT22;6899;51.546;6.912;2023-07-13T01:22:10;13.80;99.90
13652;DHT22;6899;51.546;6.912;2023-07-13T01:24:39;13.80;99.90
13652;DHT22;6899;51.546;6.912;2023-07-13T01:27:07;13.70;99.90
13652;DHT22;6899;51.546;6.912;2023-07-13T01:29:36;13.80;99.90
13652;DHT22;6899;51.546;6.912;2023-07-13T01:32:08;13.80;99.90
13652;DHT22;6899;51.546;6.912;2023-07-13T01:34:35;13.80;99.90
13652;DHT22;6899;51.546;6.912;2023-07-13T01:37:04;13.80;99.90
13652;DHT22;6899;51.546;6.912;2023-07-13T01:39:33;13.70;99.90
13652;DHT22;6899;51.546;6.912;2023-07-13T01:41:59;13.80;99.90
13652;DHT22;6899;51.546;6.912;2023-07-13T01:44:26;13.70;99.90
13652;DHT22;6899;51.546;6.912;2023-07-13T01:46:53;13.70;99.90
13652;DHT22;6899;51.546;6.912;2023-07-13T01:49:20;13.70;99.90
13652;DHT22;6899;51.546;6.912;2023-07-13T01:51:47;13.80;99.90
13652;DHT22;6899;51.546;6.912;2023-07-13T01:54:13;13.80;99.90
13652;DHT22;6899;51.546;6.912;2023-07-13T01:56:41;13.80;99.90
13652;DHT22;6899;51.546;6.912;2023-07-13T01:59:09;13.70;99.90
13652;DHT22;6899;51.546;6.912;2023-07-13T02:01:36;13.70;99.90
13652;DHT22;6899;51.546;6.912;2023-07-13T02:04:03;13.60;99.90
13652;DHT22;6899;51.546;6.912;2023-07-13T02:06:30;13.70;99.90
13652;DHT22;6899;51.546;6.912;2023-07-13T02:08:57;13.80;99.90
13652;DHT22;6899;51.546;6.912;2023-07-13T02:11:24;13.80;99.90
13652;DHT22;6899;51.546;6.912;2023-07-13T02:13:59;13.90;99.90
13652;DHT22;6899;51.546;6.912;2023-07-13T02:16:26;13.80;99.90
13652;DHT22;6899;51.546;6.912;2023-07-13T02:18:53;13.80;99.90
13652;DHT22;6899;51.546;6.912;2023-07-13T02:21:21;13.70;99.90
13652;DHT22;6899;51.546;6.912;2023-07-13T02:23:49;13.70;99.90
13652;DHT22;6899;51.546;6.912;2023-07-13T02:26:16;13.70;99.90
13652;DHT22;6899;51.546;6.912;2023-07-13T02:28:42;13.70;99.90
13652;DHT22;6899;51.546;6.912;2023-07-13T02:31:12;13.60;99.90
13652;DHT22;6899;51.546;6.912;2023-07-13T02:33:39;13.70;99.90
13652;DHT22;6899;51.546;6.912;2023-07-13T02:36:07;13.70;99.90
13652;DHT22;6899;51.546;6.912;2023-07-13T02:38:34;13.70;99.90
13652;DHT22;6899;51.546;6.912;2023-07-13T02:41:02;13.80;99.90
13652;DHT22;6899;51.546;6.912;2023-07-13T02:43:29;13.80;99.90
13652;DHT22;6899;51.546;6.912;2023-07-13T02:45:56;13.80;99.90
13652;DHT22;6899;51.546;6.912;2023-07-13T02:48:27;13.80;99.90
13652;DHT22;6899;51.546;6.912;2023-07-13T02:50:54;13.80;99.90
13652;DHT22;6899;51.546;6.912;2023-07-13T02:53:21;13.70;99.90
13652;DHT22;6899;51.546;6.912;2023-07-13T02:55:47;13.70;99.90
13652;DHT22;6899;51.546;6.912;2023-07-13T02:58:14;13.60;99.90
13652;DHT22;6899;51.546;6.912;2023-07-13T03:00:42;13.60;99.90
13652;DHT22;6899;51.546;6.912;2023-07-13T03:03:09;13.60;99.90
13652;DHT22;6899;51.546;6.912;2023-07-13T03:05:40;13.60;99.90
13652;DHT22;6899;51.546;6.912;2023-07-13T03:08:07;13.60;99.90
13652;DHT22;6899;51.546;6.912;2023-07-13T03:10:34;13.70;99.90
13652;DHT22;6899;51.546;6.912;2023-07-13T03:13:01;13.70;99.90
13652;DHT22;6899;51.546;6.912;2023-07-13T03:15:28;13.70;99.90
13652;DHT22;6899;51.546;6.912;2023-07-13T03:17:54;13.70;99.90
13652;DHT22;6899;51.546;6.912;2023-07-13T03:20:21;13.70;99.90
13652;DHT22;6899;51.546;6.912;2023-07-13T03:22:49;13.70;99.90
13652;DHT22;6899;51.546;6.912;2023-07-13T03:25:16;13.80;99.90
13652;DHT22;6899;51.546;6.912;2023-07-13T03:27:43;13.70;99.90
13652;DHT22;6899;51.546;6.912;2023-07-13T03:30:10;13.70;99.90
13652;DHT22;6899;51.546;6.912;2023-07-13T03:32:37;13.70;99.90
13652;DHT22;6899;51.546;6.912;2023-07-13T03:35:05;13.70;99.90
13652;DHT22;6899;51.546;6.912;2023-07-13T03:37:31;13.80;99.90
13652;DHT22;6899;51.546;6.912;2023-07-13T03:40:00;13.90;99.90
13652;DHT22;6899;51.546;6.912;2023-07-13T03:42:26;14.00;99.90
13652;DHT22;6899;51.546;6.912;2023-07-13T03:44:53;14.10;99.90
13652;DHT22;6899;51.546;6.912;2023-07-13T03:47:20;14.20;99.90
13652;DHT22;6899;51.546;6.912;2023-07-13T03:49:47;14.30;99.90
13652;DHT22;6899;51.546;6.912;2023-07-13T03:52:13;14.40;99.90
13652;DHT22;6899;51.546;6.912;2023-07-13T03:54:40;14.60;99.90
13652;DHT22;6899;51.546;6.912;2023-07-13T03:57:08;14.70;99.90
13652;DHT22;6899;51.546;6.912;2023-07-13T03:59:35;15.00;99.90
13652;DHT22;6899;51.546;6.912;2023-07-13T04:02:02;15.10;99.90
13652;DHT22;6899;51.546;6.912;2023-07-13T04:04:29;15.30;99.90
13652;DHT22;6899;51.546;6.912;2023-07-13T04:06:57;15.30;99.90
13652;DHT22;6899;51.546;6.912;2023-07-13T04:09:24;15.40;99.90
13652;DHT22;6899;51.546;6.912;2023-07-13T04:11:51;15.40;99.90
13652;DHT22;6899;51.546;6.912;2023-07-13T04:14:19;15.50;99.90
13652;DHT22;6899;51.546;6.912;2023-07-13T04:16:46;15.60;99.90
13652;DHT22;6899;51.546;6.912;2023-07-13T04:19:13;15.70;99.90
13652;DHT22;6899;51.546;6.912;2023-07-13T04:21:40;15.80;99.90
13652;DHT22;6899;51.546;6.912;2023-07-13T04:24:06;15.90;99.90
13652;DHT22;6899;51.546;6.912;2023-07-13T04:26:34;15.90;99.90
13652;DHT22;6899;51.546;6.912;2023-07-13T04:29:01;16.00;99.90
13652;DHT22;6899;51.546;6.912;2023-07-13T04:31:30;16.10;99.90
13652;DHT22;6899;51.546;6.912;2023-07-13T04:33:57;16.00;99.90
13652;DHT22;6899;51.546;6.912;2023-07-13T04:36:24;16.10;99.90
13652;DHT22;6899;51.546;6.912;2023-07-13T04:38:52;16.20;99.90
13652;DHT22;6899;51.546;6.912;2023-07-13T04:41:19;16.20;99.90
13652;DHT22;6899;51.546;6.912;2023-07-13T04:43:47;16.20;99.90
13652;DHT22;6899;51.546;6.912;2023-07-13T04:46:15;16.10;99.90
13652;DHT22;6899;51.546;6.912;2023-07-13T04:48:44;16.20;99.90
13652;DHT22;6899;51.546;6.912;2023-07-13T04:51:11;16.20;99.90
13652;DHT22;6899;51.546;6.912;2023-07-13T04:53:37;16.20;99.90
13652;DHT22;6899;51.546;6.912;2023-07-13T04:56:04;16.40;99.90
13652;DHT22;6899;51.546;6.912;2023-07-13T04:58:31;16.30;99.90
13652;DHT22;6899;51.546;6.912;2023-07-13T05:01:02;16.30;99.90
13652;DHT22;6899;51.546;6.912;2023-07-13T05:03:30;16.40;99.90
13652;DHT22;6899;51.546;6.912;2023-07-13T05:06:00;16.40;99.90
13652;DHT22;6899;51.546;6.912;2023-07-13T05:08:27;16.60;99.90
13652;DHT22;6899;51.546;6.912;2023-07-13T05:10:54;16.60;99.90
13652;DHT22;6899;51.546;6.912;2023-07-13T05:13:21;16.70;99.90
13652;DHT22;6899;51.546;6.912;2023-07-13T05:15:56;16.80;99.90
13652;DHT22;6899;51.546;6.912;2023-07-13T05:18:23;17.00;99.90
13652;DHT22;6899;51.546;6.912;2023-07-13T05:20:59;17.20;99.90
13652;DHT22;6899;51.546;6.912;2023-07-13T05:23:26;17.30;99.90
13652;DHT22;6899;51.546;6.912;2023-07-13T05:25:53;17.30;99.90
13652;DHT22;6899;51.546;6.912;2023-07-13T05:28:20;17.40;99.90
13652;DHT22;6899;51.546;6.912;2023-07-13T05:30:48;18.10;99.90
13652;DHT22;6899;51.546;6.912;2023-07-13T05:33:15;18.20;99.90
13652;DHT22;6899;51.546;6.912;2023-07-13T05:35:42;18.20;99.90
13652;DHT22;6899;51.546;6.912;2023-07-13T05:38:10;18.50;99.90
13652;DHT22;6899;51.546;6.912;2023-07-13T05:40:37;18.80;99.90
13652;DHT22;6899;51.546;6.912;2023-07-13T05:43:04;18.60;99.90
13652;DHT22;6899;51.546;6.912;2023-07-13T05:45:31;18.70;99.90
13652;DHT22;6899;51.546;6.912;2023-07-13T05:47:57;18.50;99.90
13652;DHT22;6899;51.546;6.912;2023-07-13T05:50:25;18.30;99.90
13652;DHT22;6899;51.546;6.912;2023-07-13T05:52:52;18.20;99.90
13652;DHT22;6899;51.546;6.912;2023-07-13T05:55:20;18.10;99.90
13652;DHT22;6899;51.546;6.912;2023-07-13T05:57:47;18.20;99.90
13652;DHT22;6899;51.546;6.912;2023-07-13T06:00:15;18.00;99.90
13652;DHT22;6899;51.546;6.912;2023-07-13T06:02:42;18.10;99.90
13652;DHT22;6899;51.546;6.912;2023-07-13T06:05:09;18.20;99.90
13652;DHT22;6899;51.546;6.912;2023-07-13T06:07:36;18.20;99.90
13652;DHT22;6899;51.546;6.912;2023-07-13T06:10:03;19.10;99.90
13652;DHT22;6899;51.546;6.912;2023-07-13T06:12:31;20.20;99.90
13652;DHT22;6899;51.546;6.912;2023-07-13T06:14:58;21.10;99.90
13652;DHT22;6899;51.546;6.912;2023-07-13T06:17:24;21.70;99.90
13652;DHT22;6899;51.546;6.912;2023-07-13T06:19:51;22.10;99.90
13652;DHT22;6899;51.546;6.912;2023-07-13T06:22:18;22.00;99.90
13652;DHT22;6899;51.546;6.912;2023-07-13T06:24:45;21.20;99.90
13652;DHT22;6899;51.546;6.912;2023-07-13T06:27:12;21.40;99.90
13652;DHT22;6899;51.546;6.912;2023-07-13T06:29:40;21.70;99.90
13652;DHT22;6899;51.546;6.912;2023-07-13T06:32:10;21.10;99.90
13652;DHT22;6899;51.546;6.912;2023-07-13T06:34:37;20.70;99.90
13652;DHT22;6899;51.546;6.912;2023-07-13T06:37:04;20.80;99.90
13652;DHT22;6899;51.546;6.912;2023-07-13T06:39:31;20.40;99.90
13652;DHT22;6899;51.546;6.912;2023-07-13T06:41:58;20.50;99.90
13652;DHT22;6899;51.546;6.912;2023-07-13T06:44:25;20.50;99.90
13652;DHT22;6899;51.546;6.912;2023-07-13T06:46:53;20.30;99.90
13652;DHT22;6899;51.546;6.912;2023-07-13T06:49:20;20.40;99.90
13652;DHT22;6899;51.546;6.912;2023-07-13T06:51:47;20.60;99.90
13652;DHT22;6899;51.546;6.912;2023-07-13T06:54:14;20.50;99.90
13652;DHT22;6899;51.546;6.912;2023-07-13T06:56:40;20.30;99.90
13652;DHT22;6899;51.546;6.912;2023-07-13T06:59:07;20.50;99.90
13652;DHT22;6899;51.546;6.912;2023-07-13T07:01:34;20.80;99.90
13652;DHT22;6899;51.546;6.912;2023-07-13T07:04:03;21.10;99.90
13652;DHT22;6899;51.546;6.912;2023-07-13T07:06:30;21.20;99.90
13652;DHT22;6899;51.546;6.912;2023-07-13T07:08:57;21.30;99.90
13652;DHT22;6899;51.546;6.912;2023-07-13T07:11:25;21.30;99.90
13652;DHT22;6899;51.546;6.912;2023-07-13T07:13:53;21.30;99.90
13652;DHT22;6899;51.546;6.912;2023-07-13T07:16:20;21.00;99.90
13652;DHT22;6899;51.546;6.912;2023-07-13T07:18:47;21.10;99.90
13652;DHT22;6899;51.546;6.912;2023-07-13T07:21:15;21.30;99.90
13652;DHT22;6899;51.546;6.912;2023-07-13T07:23:43;21.40;99.90
13652;DHT22;6899;51.546;6.912;2023-07-13T07:26:10;21.00;99.90
13652;DHT22;6899;51.546;6.912;2023-07-13T07:28:37;20.80;99.90
13652;DHT22;6899;51.546;6.912;2023-07-13T07:31:04;20.70;99.90
13652;DHT22;6899;51.546;6.912;2023-07-13T07:33:32;20.80;99.90
13652;DHT22;6899;51.546;6.912;2023-07-13T07:35:58;21.20;99.90
13652;DHT22;6899;51.546;6.912;2023-07-13T07:38:27;22.40;99.90
13652;DHT22;6899;51.546;6.912;2023-07-13T07:40:54;23.20;99.90
13652;DHT22;6899;51.546;6.912;2023-07-13T07:43:21;24.60;99.90
13652;DHT22;6899;51.546;6.912;2023-07-13T07:45:47;26.10;98.40
13652;DHT22;6899;51.546;6.912;2023-07-13T07:48:14;25.90;98.10
13652;DHT22;6899;51.546;6.912;2023-07-13T07:50:41;27.00;97.70
13652;DHT22;6899;51.546;6.912;2023-07-13T07:53:09;27.20;90.70
13652;DHT22;6899;51.546;6.912;2023-07-13T07:55:37;27.70;88.70
13652;DHT22;6899;51.546;6.912;2023-07-13T07:58:05;27.30;89.20
13652;DHT22;6899;51.546;6.912;2023-07-13T08:00:32;27.00;86.40
13652;DHT22;6899;51.546;6.912;2023-07-13T08:02:59;26.20;90.00
13652;DHT22;6899;51.546;6.912;2023-07-13T08:05:26;26.20;92.20
13652;DHT22;6899;51.546;6.912;2023-07-13T08:07:52;26.90;89.00
13652;DHT22;6899;51.546;6.912;2023-07-13T08:10:20;26.50;91.00
13652;DHT22;6899;51.546;6.912;2023-07-13T08:12:48;26.10;92.20
13652;DHT22;6899;51.546;6.912;2023-07-13T08:15:16;26.30;91.80
13652;DHT22;6899;51.546;6.912;2023-07-13T08:17:43;26.60;89.70
13652;DHT22;6899;51.546;6.912;2023-07-13T08:20:10;25.70;90.60
13652;DHT22;6899;51.546;6.912;2023-07-13T08:22:37;24.90;92.30
13652;DHT22;6899;51.546;6.912;2023-07-13T08:25:04;24.60;95.20
13652;DHT22;6899;51.546;6.912;2023-07-13T08:27:33;24.80;95.90
13652;DHT22;6899;51.546;6.912;2023-07-13T08:30:01;24.30;96.70
13652;DHT22;6899;51.546;6.912;2023-07-13T08:32:29;24.40;96.70
13652;DHT22;6899;51.546;6.912;2023-07-13T08:34:55;24.30;96.00
13652;DHT22;6899;51.546;6.912;2023-07-13T08:37:22;24.30;96.50
13652;DHT22;6899;51.546;6.912;2023-07-13T08:39:49;24.20;97.70
13652;DHT22;6899;51.546;6.912;2023-07-13T08:42:27;25.10;96.70
13652;DHT22;6899;51.546;6.912;2023-07-13T08:45:06;26.20;95.00
13652;DHT22;6899;51.546;6.912;2023-07-13T08:47:35;26.60;92.70
13652;DHT22;6899;51.546;6.912;2023-07-13T08:50:04;27.00;90.70
13652;DHT22;6899;51.546;6.912;2023-07-13T08:52:34;26.10;90.70
13652;DHT22;6899;51.546;6.912;2023-07-13T08:55:05;25.10;91.80
13652;DHT22;6899;51.546;6.912;2023-07-13T08:57:34;24.20;94.90
13652;DHT22;6899;51.546;6.912;2023-07-13T09:00:02;24.20;96.20
13652;DHT22;6899;51.546;6.912;2023-07-13T09:02:41;24.60;96.20
13652;DHT22;6899;51.546;6.912;2023-07-13T09:05:12;25.00;95.90
13652;DHT22;6899;51.546;6.912;2023-07-13T09:07:56;25.20;95.60
13652;DHT22;6899;51.546;6.912;2023-07-13T09:10:28;24.90;95.00
13652;DHT22;6899;51.546;6.912;2023-07-13T09:13:04;24.60;95.60
13652;DHT22;6899;51.546;6.912;2023-07-13T09:15:37;24.80;96.40
13652;DHT22;6899;51.546;6.912;2023-07-13T09:18:10;24.90;95.30
13652;DHT22;6899;51.546;6.912;2023-07-13T09:20:47;25.30;94.40
13652;DHT22;6899;51.546;6.912;2023-07-13T09:23:20;25.30;93.00
13652;DHT22;6899;51.546;6.912;2023-07-13T09:25:49;24.50;95.50
13652;DHT22;6899;51.546;6.912;2023-07-13T09:28:23;23.90;96.70
13652;DHT22;6899;51.546;6.912;2023-07-13T09:30:54;23.70;99.40
13652;DHT22;6899;51.546;6.912;2023-07-13T09:33:24;23.70;99.80
13652;DHT22;6899;51.546;6.912;2023-07-13T09:35:54;24.10;98.60
13652;DHT22;6899;51.546;6.912;2023-07-13T09:38:24;24.90;97.60
13652;DHT22;6899;51.546;6.912;2023-07-13T09:41:00;25.20;95.20
13652;DHT22;6899;51.546;6.912;2023-07-13T09:43:27;25.80;94.40
13652;DHT22;6899;51.546;6.912;2023-07-13T09:45:54;25.80;93.50
13652;DHT22;6899;51.546;6.912;2023-07-13T09:48:21;25.90;93.90
13652;DHT22;6899;51.546;6.912;2023-07-13T09:50:54;25.20;94.20
13652;DHT22;6899;51.546;6.912;2023-07-13T09:53:23;25.50;94.60
13652;DHT22;6899;51.546;6.912;2023-07-13T09:55:50;26.10;95.40
13652;DHT22;6899;51.546;6.912;2023-07-13T09:58:19;25.70;93.20
13652;DHT22;6899;51.546;6.912;2023-07-13T10:00:55;24.70;95.00
13652;DHT22;6899;51.546;6.912;2023-07-13T10:03:25;23.40;97.70
13652;DHT22;6899;51.546;6.912;2023-07-13T10:05:53;22.60;99.90
13652;DHT22;6899;51.546;6.912;2023-07-13T10:08:23;22.30;99.90
13652;DHT22;6899;51.546;6.912;2023-07-13T10:10:58;22.10;99.90
13652;DHT22;6899;51.546;6.912;2023-07-13T10:13:31;22.20;99.90
13652;DHT22;6899;51.546;6.912;2023-07-13T10:16:00;22.60;99.90
13652;DHT22;6899;51.546;6.912;2023-07-13T10:18:29;23.40;99.90
13652;DHT22;6899;51.546;6.912;2023-07-13T10:21:12;24.50;99.00
13652;DHT22;6899;51.546;6.912;2023-07-13T10:23:40;25.10;96.00
13652;DHT22;6899;51.546;6.912;2023-07-13T10:26:15;25.30;96.30
13652;DHT22;6899;51.546;6.912;2023-07-13T10:28:45;24.80;94.80
13652;DHT22;6899;51.546;6.912;2023-07-13T10:31:15;24.70;95.20
13652;DHT22;6899;51.546;6.912;2023-07-13T10:33:42;24.60;95.00
13652;DHT22;6899;51.546;6.912;2023-07-13T10:36:16;24.00;95.70
13652;DHT22;6899;51.546;6.912;2023-07-13T10:38:45;24.00;97.80
13652;DHT22;6899;51.546;6.912;2023-07-13T10:41:17;24.60;96.20
13652;DHT22;6899;51.546;6.912;2023-07-13T10:43:47;24.50;96.50
13652;DHT22;6899;51.546;6.912;2023-07-13T10:46:18;24.60;96.40
13652;DHT22;6899;51.546;6.912;2023-07-13T10:48:49;25.10;96.20
13652;DHT22;6899;51.546;6.912;2023-07-13T10:51:19;25.20;93.90
13652;DHT22;6899;51.546;6.912;2023-07-13T10:53:48;24.70;94.60
13652;DHT22;6899;51.546;6.912;2023-07-13T10:56:34;24.60;94.40
13652;DHT22;6899;51.546;6.912;2023-07-13T10:59:10;24.80;95.30
13652;DHT22;6899;51.546;6.912;2023-07-13T11:01:40;24.60;94.20
13652;DHT22;6899;51.546;6.912;2023-07-13T11:04:12;24.30;94.90
13652;DHT22;6899;51.546;6.912;2023-07-13T11:06:50;23.70;96.30
13652;DHT22;6899;51.546;6.912;2023-07-13T11:09:34;23.90;97.70
13652;DHT22;6899;51.546;6.912;2023-07-13T11:12:07;23.90;97.50
13652;DHT22;6899;51.546;6.912;2023-07-13T11:14:36;24.10;97.40
13652;DHT22;6899;51.546;6.912;2023-07-13T11:17:24;24.20;97.80
13652;DHT22;6899;51.546;6.912;2023-07-13T11:19:52;23.80;96.40
13652;DHT22;6899;51.546;6.912;2023-07-13T11:22:26;23.70;96.20
13652;DHT22;6899;51.546;6.912;2023-07-13T11:25:27;24.30;96.20
13652;DHT22;6899;51.546;6.912;2023-07-13T11:28:07;25.20;93.20
13652;DHT22;6899;51.546;6.912;2023-07-13T11:30:43;25.30;89.70
13652;DHT22;6899;51.546;6.912;2023-07-13T11:33:20;25.90;90.90
13652;DHT22;6899;51.546;6.912;2023-07-13T11:35:57;26.10;88.20
13652;DHT22;6899;51.546;6.912;2023-07-13T11:38:32;25.90;84.80
13652;DHT22;6899;51.546;6.912;2023-07-13T11:41:04;25.70;85.20
13652;DHT22;6899;51.546;6.912;2023-07-13T11:43:31;26.00;86.70
13652;DHT22;6899;51.546;6.912;2023-07-13T11:46:12;25.70;85.40
13652;DHT22;6899;51.546;6.912;2023-07-13T11:48:39;25.80;89.50
13652;DHT22;6899;51.546;6.912;2023-07-13T11:51:07;25.70;81.90
13652;DHT22;6899;51.546;6.912;2023-07-13T11:53:45;25.30;81.60
13652;DHT22;6899;51.546;6.912;2023-07-13T11:56:12;24.80;84.60
13652;DHT22;6899;51.546;6.912;2023-07-13T11:58:40;25.00;87.80
13652;DHT22;6899;51.546;6.912;2023-07-13T12:01:16;25.50;88.80
13652;DHT22;6899;51.546;6.912;2023-07-13T12:03:45;25.40;82.70
13652;DHT22;6899;51.546;6.912;2023-07-13T12:06:26;25.10;85.80
13652;DHT22;6899;51.546;6.912;2023-07-13T12:08:56;25.60;86.00
13652;DHT22;6899;51.546;6.912;2023-07-13T12:11:23;26.20;84.10
13652;DHT22;6899;51.546;6.912;2023-07-13T12:13:49;25.70;80.80
13652;DHT22;6899;51.546;6.912;2023-07-13T12:16:25;25.20;77.60
13652;DHT22;6899;51.546;6.912;2023-07-13T12:18:53;25.70;81.30
13652;DHT22;6899;51.546;6.912;2023-07-13T12:21:24;26.40;76.20
13652;DHT22;6899;51.546;6.912;2023-07-13T12:23:54;26.20;79.10
13652;DHT22;6899;51.546;6.912;2023-07-13T12:26:21;25.90;75.90
13652;DHT22;6899;51.546;6.912;2023-07-13T12:28:51;25.40;78.60
13652;DHT22;6899;51.546;6.912;2023-07-13T12:31:29;25.50;83.20
13652;DHT22;6899;51.546;6.912;2023-07-13T12:34:00;25.30;83.50
13652;DHT22;6899;51.546;6.912;2023-07-13T12:36:30;25.30;80.60
13652;DHT22;6899;51.546;6.912;2023-07-13T12:39:02;24.80;79.30
13652;DHT22;6899;51.546;6.912;2023-07-13T12:41:31;24.50;84.40
13652;DHT22;6899;51.546;6.912;2023-07-13T12:43:59;25.50;84.50
13652;DHT22;6899;51.546;6.912;2023-07-13T12:46:26;26.40;79.70
13652;DHT22;6899;51.546;6.912;2023-07-13T12:48:56;26.30;75.10
13652;DHT22;6899;51.546;6.912;2023-07-13T12:51:25;25.80;76.60
13652;DHT22;6899;51.546;6.912;2023-07-13T12:53:57;25.90;76.50
13652;DHT22;6899;51.546;6.912;2023-07-13T12:56:27;25.60;77.50
13652;DHT22;6899;51.546;6.912;2023-07-13T12:58:58;25.20;80.10
13652;DHT22;6899;51.546;6.912;2023-07-13T13:01:28;24.40;80.30
13652;DHT22;6899;51.546;6.912;2023-07-13T13:03:55;22.80;89.30
13652;DHT22;6899;51.546;6.912;2023-07-13T13:06:24;21.40;97.10
13652;DHT22;6899;51.546;6.912;2023-07-13T13:08:52;20.40;99.90
13652;DHT22;6899;51.546;6.912;2023-07-13T13:11:21;19.40;99.90
13652;DHT22;6899;51.546;6.912;2023-07-13T13:13:50;18.60;99.90
13652;DHT22;6899;51.546;6.912;2023-07-13T13:16:21;18.10;99.90
13652;DHT22;6899;51.546;6.912;2023-07-13T13:18:48;17.70;99.90
13652;DHT22;6899;51.546;6.912;2023-07-13T13:21:16;17.40;99.90
13652;DHT22;6899;51.546;6.912;2023-07-13T13:23:43;17.20;99.90
13652;DHT22;6899;51.546;6.912;2023-07-13T13:26:12;17.40;99.90
13652;DHT22;6899;51.546;6.912;2023-07-13T13:28:40;17.80;99.90
13652;DHT22;6899;51.546;6.912;2023-07-13T13:31:09;18.40;99.90
13652;DHT22;6899;51.546;6.912;2023-07-13T13:33:39;19.10;99.90
13652;DHT22;6899;51.546;6.912;2023-07-13T13:36:13;20.00;99.90
13652;DHT22;6899;51.546;6.912;2023-07-13T13:38:41;20.80;99.90
13652;DHT22;6899;51.546;6.912;2023-07-13T13:41:10;21.40;99.90
13652;DHT22;6899;51.546;6.912;2023-07-13T13:43:39;21.80;99.90
13652;DHT22;6899;51.546;6.912;2023-07-13T13:46:14;22.50;99.90
13652;DHT22;6899;51.546;6.912;2023-07-13T13:48:41;22.90;99.90
13652;DHT22;6899;51.546;6.912;2023-07-13T13:51:14;23.00;99.90
13652;DHT22;6899;51.546;6.912;2023-07-13T13:53:41;22.70;99.90
13652;DHT22;6899;51.546;6.912;2023-07-13T13:56:08;22.40;99.90
13652;DHT22;6899;51.546;6.912;2023-07-13T13:58:35;21.90;99.90
13652;DHT22;6899;51.546;6.912;2023-07-13T14:01:02;21.60;99.90
13652;DHT22;6899;51.546;6.912;2023-07-13T14:03:32;20.80;99.90
13652;DHT22;6899;51.546;6.912;2023-07-13T14:05:59;20.50;99.90
13652;DHT22;6899;51.546;6.912;2023-07-13T14:08:26;20.10;99.90
13652;DHT22;6899;51.546;6.912;2023-07-13T14:10:56;19.40;99.90
13652;DHT22;6899;51.546;6.912;2023-07-13T14:13:27;19.00;99.90
13652;DHT22;6899;51.546;6.912;2023-07-13T14:15:54;18.50;99.90
13652;DHT22;6899;51.546;6.912;2023-07-13T14:18:21;18.30;99.90
13652;DHT22;6899;51.546;6.912;2023-07-13T14:20:50;18.20;99.90
13652;DHT22;6899;51.546;6.912;2023-07-13T14:23:18;18.30;99.90
13652;DHT22;6899;51.546;6.912;2023-07-13T14:25:45;18.80;99.90
13652;DHT22;6899;51.546;6.912;2023-07-13T14:28:21;19.00;99.90
13652;DHT22;6899;51.546;6.912;2023-07-13T14:30:49;19.10;99.90
13652;DHT22;6899;51.546;6.912;2023-07-13T14:33:17;19.40;99.90
13652;DHT22;6899;51.546;6.912;2023-07-13T14:35:44;19.70;99.90
13652;DHT22;6899;51.546;6.912;2023-07-13T14:38:15;19.90;99.90
13652;DHT22;6899;51.546;6.912;2023-07-13T14:40:43;20.30;99.90
13652;DHT22;6899;51.546;6.912;2023-07-13T14:43:11;21.10;99.90
13652;DHT22;6899;51.546;6.912;2023-07-13T14:45:40;22.00;99.90
13652;DHT22;6899;51.546;6.912;2023-07-13T14:48:13;23.10;99.90
13652;DHT22;6899;51.546;6.912;2023-07-13T14:50:41;24.50;99.90
13652;DHT22;6899;51.546;6.912;2023-07-13T14:53:11;25.80;97.00
13652;DHT22;6899;51.546;6.912;2023-07-13T14:55:39;26.50;95.70
13652;DHT22;6899;51.546;6.912;2023-07-13T14:58:06;27.10;88.20
13652;DHT22;6899;51.546;6.912;2023-07-13T15:00:33;26.30;81.60
13652;DHT22;6899;51.546;6.912;2023-07-13T15:03:00;26.50;83.20
13652;DHT22;6899;51.546;6.912;2023-07-13T15:05:29;26.50;83.40
13652;DHT22;6899;51.546;6.912;2023-07-13T15:07:58;26.20;82.90
13652;DHT22;6899;51.546;6.912;2023-07-13T15:10:28;25.30;83.00
13652;DHT22;6899;51.546;6.912;2023-07-13T15:12:58;24.60;90.20
13652;DHT22;6899;51.546;6.912;2023-07-13T15:15:27;24.10;95.80
13652;DHT22;6899;51.546;6.912;2023-07-13T15:17:54;23.80;99.90
13652;DHT22;6899;51.546;6.912;2023-07-13T15:20:25;23.50;99.90
13652;DHT22;6899;51.546;6.912;2023-07-13T15:22:52;23.00;99.90
13652;DHT22;6899;51.546;6.912;2023-07-13T15:25:20;22.70;99.90
13652;DHT22;6899;51.546;6.912;2023-07-13T15:27:49;22.30;99.90
13652;DHT22;6899;51.546;6.912;2023-07-13T15:30:15;21.60;99.90
13652;DHT22;6899;51.546;6.912;2023-07-13T15:32:43;21.20;99.90
13652;DHT22;6899;51.546;6.912;2023-07-13T15:35:14;21.00;99.90
13652;DHT22;6899;51.546;6.912;2023-07-13T15:37:42;20.20;99.90
13652;DHT22;6899;51.546;6.912;2023-07-13T15:40:10;18.90;99.90
13652;DHT22;6899;51.546;6.912;2023-07-13T15:42:38;18.20;99.90
13652;DHT22;6899;51.546;6.912;2023-07-13T15:45:15;17.90;99.90
13652;DHT22;6899;51.546;6.912;2023-07-13T15:47:43;17.70;99.90
13652;DHT22;6899;51.546;6.912;2023-07-13T15:50:13;17.90;99.90
13652;DHT22;6899;51.546;6.912;2023-07-13T15:52:40;18.00;99.90
13652;DHT22;6899;51.546;6.912;2023-07-13T15:55:10;18.10;99.90